Time;durP1;ratioP1;P1;durP2;ratioP2;P2;SDS_P1;SDS_P2;PMS_P1;PMS_P2;Temp;Humidity;BMP_temperature;BMP_pressure;BME280_temperature;BME280_humidity;BME280_pressure;Samples;Min_cycle;Max_cycle;Signal;HPM_P1;HPM_P2
2021/01/26 00:01:23;;;;;;;17.93;10.40;;;;;;;;;;4770860;29;177972;-75
2021/01/26 00:03:50;;;;;;;12.77;8.10;;;;;;;;;;4758465;29;178326;-74
2021/01/26 00:06:17;;;;;;;12.63;7.77;;;;;;;;;;4763866;29;179558;-73
2021/01/26 00:08:44;;;;;;;10.53;7.60;;;;;;;;;;4778043;29;178283;-74
2021/01/26 00:11:11;;;;;;;13.57;8.03;;;;;;;;;;4775802;28;179777;-74
2021/01/26 00:13:37;;;;;;;11.27;7.57;;;;;;;;;;4774839;28;181189;-74
2021/01/26 00:16:05;;;;;;;14.23;9.27;;;;;;;;;;4757198;29;183928;-74
2021/01/26 00:18:32;;;;;;;15.50;10.27;;;;;;;;;;4762609;29;182060;-74
2021/01/26 00:20:59;;;;;;;19.53;12.17;;;;;;;;;;4776407;29;177969;-74
2021/01/26 00:23:26;;;;;;;19.40;12.20;;;;;;;;;;4773538;29;178792;-74
2021/01/26 00:25:52;;;;;;;21.27;13.80;;;;;;;;;;4774237;29;179336;-75
2021/01/26 00:28:19;;;;;;;22.37;14.13;;;;;;;;;;4775377;29;179541;-74
2021/01/26 00:30:46;;;;;;;21.77;14.07;;;;;;;;;;4773499;29;179231;-74
2021/01/26 00:33:17;;;;;;;22.40;13.90;;;;;;;;;;4776986;29;176624;-75
2021/01/26 00:35:44;;;;;;;24.90;15.67;;;;;;;;;;4774399;29;179288;-74
2021/01/26 00:38:11;;;;;;;21.87;14.73;;;;;;;;;;4774199;29;178566;-75
2021/01/26 00:40:38;;;;;;;23.20;15.30;;;;;;;;;;4774120;29;182202;-74
2021/01/26 00:43:05;;;;;;;22.83;15.87;;;;;;;;;;4773420;29;178488;-74
2021/01/26 00:45:33;;;;;;;25.07;16.60;;;;;;;;;;4774870;29;179233;-75
2021/01/26 00:47:59;;;;;;;26.33;16.23;;;;;;;;;;4775811;29;178091;-74
2021/01/26 00:50:28;;;;;;;28.47;17.43;;;;;;;;;;4757493;29;178042;-74
2021/01/26 00:52:56;;;;;;;25.27;16.90;;;;;;;;;;4774175;29;178367;-73
2021/01/26 00:56:01;;;;;;;26.07;16.80;;;;;;;;;;4765840;29;180153;-74
2021/01/26 00:58:29;;;;;;;27.07;17.60;;;;;;;;;;4776322;29;179735;-74
2021/01/26 01:00:56;;;;;;;26.33;16.97;;;;;;;;;;4762008;29;177978;-75
2021/01/26 01:03:26;;;;;;;26.60;17.63;;;;;;;;;;4762242;29;179039;-73
2021/01/26 01:05:53;;;;;;;28.00;17.43;;;;;;;;;;4775213;29;182666;-74
2021/01/26 01:08:19;;;;;;;24.40;16.30;;;;;;;;;;4778331;29;183019;-74
2021/01/26 01:10:46;;;;;;;29.73;18.10;;;;;;;;;;4778277;29;179085;-74
2021/01/26 01:13:13;;;;;;;26.93;17.87;;;;;;;;;;4778884;29;178200;-74
2021/01/26 01:15:39;;;;;;;28.37;18.30;;;;;;;;;;4778767;29;178895;-73
2021/01/26 01:18:07;;;;;;;26.27;17.57;;;;;;;;;;4776424;29;179334;-74
2021/01/26 01:20:34;;;;;;;26.13;18.07;;;;;;;;;;4777932;29;179825;-74
2021/01/26 01:23:01;;;;;;;25.00;17.70;;;;;;;;;;4777667;29;177349;-73
2021/01/26 01:25:27;;;;;;;26.87;18.00;;;;;;;;;;4777415;29;179064;-74
2021/01/26 01:27:54;;;;;;;25.93;17.07;;;;;;;;;;4777618;29;179388;-74
2021/01/26 01:30:25;;;;;;;25.40;17.73;;;;;;;;;;4766323;29;182597;-74
2021/01/26 01:32:52;;;;;;;27.23;17.27;;;;;;;;;;4773223;29;179482;-74
2021/01/26 01:35:20;;;;;;;30.50;19.07;;;;;;;;;;4778327;29;179533;-74
2021/01/26 01:37:47;;;;;;;25.57;18.17;;;;;;;;;;4776563;29;178107;-73
2021/01/26 01:40:19;;;;;;;26.50;18.37;;;;;;;;;;4777866;29;178418;-75
2021/01/26 01:42:47;;;;;;;25.10;17.27;;;;;;;;;;4777272;29;178106;-74
2021/01/26 01:45:15;;;;;;;25.97;17.70;;;;;;;;;;4777313;29;179231;-74
2021/01/26 01:47:45;;;;;;;26.60;17.93;;;;;;;;;;4778196;29;177703;-75
2021/01/26 01:50:15;;;;;;;24.53;17.90;;;;;;;;;;4777861;29;178893;-74
2021/01/26 01:52:42;;;;;;;27.13;17.13;;;;;;;;;;4760426;29;180640;-74
2021/01/26 01:55:12;;;;;;;29.07;16.83;;;;;;;;;;4770355;29;184036;-74
2021/01/26 01:57:46;;;;;;;25.17;17.37;;;;;;;;;;4775574;29;182024;-75
2021/01/26 02:00:14;;;;;;;31.70;19.27;;;;;;;;;;4776037;29;179110;-74
2021/01/26 02:02:44;;;;;;;25.43;17.73;;;;;;;;;;4777266;29;178591;-75
2021/01/26 02:05:13;;;;;;;25.00;17.47;;;;;;;;;;4776964;29;179319;-74
2021/01/26 02:07:39;;;;;;;26.63;18.30;;;;;;;;;;4776252;29;180416;-74
2021/01/26 02:10:07;;;;;;;25.50;17.23;;;;;;;;;;4775042;29;178013;-74
2021/01/26 02:12:34;;;;;;;24.97;17.97;;;;;;;;;;4778707;29;176617;-74
2021/01/26 02:15:01;;;;;;;29.37;17.97;;;;;;;;;;4777195;29;180263;-74
2021/01/26 02:17:40;;;;;;;25.00;17.50;;;;;;;;;;4772420;29;178119;-74
2021/01/26 02:20:18;;;;;;;24.67;17.70;;;;;;;;;;4775891;29;181311;-74
2021/01/26 02:22:56;;;;;;;33.00;19.80;;;;;;;;;;4775145;29;177957;-74
2021/01/26 02:25:26;;;;;;;30.17;19.63;;;;;;;;;;4769549;29;179436;-75
2021/01/26 02:28:19;;;;;;;29.60;19.53;;;;;;;;;;4776854;29;180478;-74
2021/01/26 02:31:10;;;;;;;26.63;18.13;;;;;;;;;;4777742;29;178012;-75
2021/01/26 02:34:04;;;;;;;26.20;18.13;;;;;;;;;;4776202;29;178024;-74
2021/01/26 02:36:30;;;;;;;26.03;18.70;;;;;;;;;;4764092;29;180267;-74
2021/01/26 02:39:06;;;;;;;31.10;18.63;;;;;;;;;;4776094;29;177788;-72
2021/01/26 02:41:37;;;;;;;28.00;19.47;;;;;;;;;;4777498;29;178051;-75
2021/01/26 02:44:13;;;;;;;26.13;18.37;;;;;;;;;;4777052;28;177909;-74
2021/01/26 02:46:41;;;;;;;26.23;18.50;;;;;;;;;;4768503;29;184127;-74
2021/01/26 02:49:27;;;;;;;25.90;18.20;;;;;;;;;;4776477;29;182210;-74
2021/01/26 02:52:12;;;;;;;26.47;18.77;;;;;;;;;;4766069;29;178459;-74
2021/01/26 02:54:57;;;;;;;29.00;19.17;;;;;;;;;;4776588;29;179088;-74
2021/01/26 02:57:28;;;;;;;28.83;19.23;;;;;;;;;;4776536;29;179190;-74
2021/01/26 03:00:02;;;;;;;29.30;19.20;;;;;;;;;;4777028;29;178006;-74
2021/01/26 03:02:33;;;;;;;28.23;19.20;;;;;;;;;;4775028;29;179408;-74
2021/01/26 03:05:05;;;;;;;28.17;19.67;;;;;;;;;;4776324;29;176938;-74
2021/01/26 03:07:34;;;;;;;29.63;20.57;;;;;;;;;;4776289;29;178951;-74
2021/01/26 03:10:03;;;;;;;26.90;20.03;;;;;;;;;;4776607;29;178703;-74
2021/01/26 03:12:34;;;;;;;33.10;20.83;;;;;;;;;;4773906;29;181227;-74
2021/01/26 03:15:03;;;;;;;30.07;20.57;;;;;;;;;;4776259;29;180593;-74
2021/01/26 03:17:34;;;;;;;30.43;20.50;;;;;;;;;;4775850;29;179995;-74
2021/01/26 03:20:16;;;;;;;30.07;20.50;;;;;;;;;;4775999;29;178292;-74
2021/01/26 03:22:48;;;;;;;32.57;21.17;;;;;;;;;;4774794;29;177964;-74
2021/01/26 03:25:17;;;;;;;30.30;20.57;;;;;;;;;;4777065;29;177910;-74
2021/01/26 03:27:45;;;;;;;29.43;20.17;;;;;;;;;;4775774;29;179136;-74
2021/01/26 03:30:17;;;;;;;29.87;20.50;;;;;;;;;;4776146;29;178834;-74
2021/01/26 03:32:50;;;;;;;28.87;19.97;;;;;;;;;;4775182;29;179715;-74
2021/01/26 03:35:18;;;;;;;30.53;20.27;;;;;;;;;;4776350;29;178175;-74
2021/01/26 03:37:51;;;;;;;33.30;21.67;;;;;;;;;;4773441;29;183452;-74
2021/01/26 03:40:18;;;;;;;31.10;20.90;;;;;;;;;;4775066;29;183396;-72
2021/01/26 03:42:45;;;;;;;28.27;20.20;;;;;;;;;;4776973;29;178910;-74
2021/01/26 03:45:11;;;;;;;31.27;20.23;;;;;;;;;;4776606;29;177870;-74
2021/01/26 03:47:51;;;;;;;29.23;20.63;;;;;;;;;;4775662;29;178643;-74
2021/01/26 03:50:18;;;;;;;31.40;20.37;;;;;;;;;;4774400;29;181005;-74
2021/01/26 03:52:57;;;;;;;30.97;19.93;;;;;;;;;;4775061;29;179301;-74
2021/01/26 03:55:28;;;;;;;28.90;21.10;;;;;;;;;;4776785;29;177339;-73
2021/01/26 03:58:14;;;;;;;27.60;19.90;;;;;;;;;;4775459;29;179236;-73
2021/01/26 04:00:48;;;;;;;27.37;20.13;;;;;;;;;;4776206;29;178482;-74
2021/01/26 04:03:26;;;;;;;31.37;20.67;;;;;;;;;;4772599;28;181283;-73
2021/01/26 04:05:57;;;;;;;31.43;21.33;;;;;;;;;;4776072;29;178805;-73
2021/01/26 04:08:27;;;;;;;29.50;20.63;;;;;;;;;;4760289;29;178955;-74
2021/01/26 04:11:00;;;;;;;31.00;21.10;;;;;;;;;;4775571;29;180583;-73
2021/01/26 04:13:31;;;;;;;31.07;21.87;;;;;;;;;;4775171;29;178929;-73
2021/01/26 04:15:59;;;;;;;35.43;21.23;;;;;;;;;;4774384;29;178589;-73
2021/01/26 04:18:29;;;;;;;32.77;22.83;;;;;;;;;;4775220;29;180280;-73
2021/01/26 04:20:57;;;;;;;30.23;20.83;;;;;;;;;;4769101;29;178735;-73
2021/01/26 04:23:26;;;;;;;31.73;20.83;;;;;;;;;;4757329;29;178808;-73
2021/01/26 04:25:54;;;;;;;30.07;19.80;;;;;;;;;;4774274;29;178196;-73
2021/01/26 04:28:40;;;;;;;29.00;21.07;;;;;;;;;;4773498;29;182650;-73
2021/01/26 04:31:09;;;;;;;31.30;20.60;;;;;;;;;;4773376;29;181653;-73
2021/01/26 04:33:37;;;;;;;38.37;23.17;;;;;;;;;;4776409;29;178338;-73
2021/01/26 04:36:04;;;;;;;31.37;21.57;;;;;;;;;;4778662;29;179143;-73
2021/01/26 04:38:31;;;;;;;37.00;21.77;;;;;;;;;;4778462;29;179257;-73
2021/01/26 04:41:01;;;;;;;31.63;21.00;;;;;;;;;;4778099;29;178427;-73
2021/01/26 04:43:32;;;;;;;31.70;21.03;;;;;;;;;;4779685;29;178316;-73
2021/01/26 04:46:11;;;;;;;30.50;21.00;;;;;;;;;;4777419;29;177807;-73
2021/01/26 04:48:42;;;;;;;30.97;20.50;;;;;;;;;;4778471;29;179349;-72
2021/01/26 04:51:09;;;;;;;30.07;19.97;;;;;;;;;;4777906;29;178271;-73
2021/01/26 04:53:48;;;;;;;29.93;19.97;;;;;;;;;;4778088;29;181868;-72
2021/01/26 04:56:34;;;;;;;33.23;20.07;;;;;;;;;;4778011;29;180587;-73
2021/01/26 04:59:13;;;;;;;32.73;20.47;;;;;;;;;;4777862;29;180728;-72
2021/01/26 05:01:42;;;;;;;31.77;19.60;;;;;;;;;;4778158;29;177946;-72
2021/01/26 05:04:27;;;;;;;30.67;19.43;;;;;;;;;;4778030;29;178681;-72
2021/01/26 05:07:09;;;;;;;28.73;19.50;;;;;;;;;;4778444;29;178752;-72
2021/01/26 05:09:42;;;;;;;30.10;19.57;;;;;;;;;;4776839;29;178759;-72
2021/01/26 05:12:11;;;;;;;31.67;21.07;;;;;;;;;;4779341;29;177701;-72
2021/01/26 05:14:41;;;;;;;30.50;20.03;;;;;;;;;;4777979;29;178428;-72
2021/01/26 05:17:15;;;;;;;29.90;20.20;;;;;;;;;;4779025;29;178384;-72
2021/01/26 05:19:45;;;;;;;37.87;21.17;;;;;;;;;;4772051;29;186669;-72
2021/01/26 05:22:24;;;;;;;31.93;19.70;;;;;;;;;;4770020;29;181394;-72
2021/01/26 05:25:00;;;;;;;29.10;19.33;;;;;;;;;;4777358;29;178735;-72
2021/01/26 05:27:28;;;;;;;28.27;19.53;;;;;;;;;;4772435;29;179094;-72
2021/01/26 05:29:57;;;;;;;33.53;20.47;;;;;;;;;;4775531;29;179911;-72
2021/01/26 05:32:24;;;;;;;29.67;19.03;;;;;;;;;;4778031;29;179611;-72
2021/01/26 05:34:52;;;;;;;34.93;21.07;;;;;;;;;;4776986;29;178724;-72
2021/01/26 05:37:19;;;;;;;28.60;19.33;;;;;;;;;;4777718;29;177591;-72
2021/01/26 05:40:06;;;;;;;30.83;19.90;;;;;;;;;;4777397;29;179446;-72
2021/01/26 05:42:34;;;;;;;29.77;19.70;;;;;;;;;;4777649;29;178000;-72
2021/01/26 05:45:19;;;;;;;33.87;20.87;;;;;;;;;;4776722;29;181304;-72
2021/01/26 05:47:46;;;;;;;30.27;20.10;;;;;;;;;;4777861;29;178819;-72
2021/01/26 05:50:26;;;;;;;26.50;19.30;;;;;;;;;;4763836;29;179568;-72
2021/01/26 05:52:54;;;;;;;26.27;19.23;;;;;;;;;;4772476;29;178813;-71
2021/01/26 05:55:25;;;;;;;31.50;19.13;;;;;;;;;;4776655;29;179459;-72
2021/01/26 05:57:53;;;;;;;27.43;19.50;;;;;;;;;;4761761;29;178453;-72
2021/01/26 06:00:19;;;;;;;29.97;19.97;;;;;;;;;;4777828;29;179543;-71
2021/01/26 06:02:46;;;;;;;28.73;19.27;;;;;;;;;;4760640;29;181123;-71
2021/01/26 06:05:19;;;;;;;31.63;21.07;;;;;;;;;;4777857;29;177965;-71
2021/01/26 06:08:03;;;;;;;30.63;19.67;;;;;;;;;;4776943;29;178063;-71
2021/01/26 06:10:31;;;;;;;27.50;19.70;;;;;;;;;;4773269;29;182108;-71
2021/01/26 06:12:58;;;;;;;26.70;18.57;;;;;;;;;;4777027;29;181688;-71
2021/01/26 06:15:25;;;;;;;32.47;19.63;;;;;;;;;;4778208;29;177866;-71
2021/01/26 06:18:07;;;;;;;28.13;18.87;;;;;;;;;;4777108;29;177999;-71
2021/01/26 06:20:35;;;;;;;28.23;19.07;;;;;;;;;;4778134;29;180556;-71
2021/01/26 06:23:13;;;;;;;28.20;19.00;;;;;;;;;;4776011;29;178366;-71
2021/01/26 06:25:40;;;;;;;33.20;19.27;;;;;;;;;;4775812;29;178007;-71
2021/01/26 06:28:24;;;;;;;30.20;18.33;;;;;;;;;;4777838;29;176924;-71
2021/01/26 06:31:09;;;;;;;29.13;19.43;;;;;;;;;;4772033;29;179851;-71
2021/01/26 06:33:39;;;;;;;31.43;19.47;;;;;;;;;;4777272;29;178326;-70
2021/01/26 06:36:24;;;;;;;30.23;19.67;;;;;;;;;;4774861;29;181366;-70
2021/01/26 06:39:04;;;;;;;29.17;19.93;;;;;;;;;;4776167;29;179716;-70
2021/01/26 06:41:36;;;;;;;30.60;20.07;;;;;;;;;;4775168;29;180084;-71
2021/01/26 06:44:21;;;;;;;29.37;19.40;;;;;;;;;;4759262;29;178763;-71
2021/01/26 06:47:06;;;;;;;29.77;20.27;;;;;;;;;;4760294;29;178593;-70
2021/01/26 06:49:44;;;;;;;25.97;18.37;;;;;;;;;;4759481;29;178046;-70
2021/01/26 06:52:25;;;;;;;28.07;19.47;;;;;;;;;;4762344;29;179922;-70
2021/01/26 06:54:59;;;;;;;30.60;20.03;;;;;;;;;;4778177;29;177774;-71
2021/01/26 06:57:39;;;;;;;28.47;19.53;;;;;;;;;;4776770;29;177964;-70
2021/01/26 07:00:05;;;;;;;36.77;19.20;;;;;;;;;;4771990;29;178595;-70
2021/01/26 07:02:52;;;;;;;31.33;19.40;;;;;;;;;;4758696;29;182576;-70
2021/01/26 07:05:41;;;;;;;27.27;17.63;;;;;;;;;;4772818;29;182280;-70
2021/01/26 07:08:25;;;;;;;28.10;19.23;;;;;;;;;;4765623;29;177863;-70
2021/01/26 07:11:10;;;;;;;28.17;19.10;;;;;;;;;;4760909;29;178063;-70
2021/01/26 07:13:53;;;;;;;40.93;20.67;;;;;;;;;;4778093;28;179334;-70
2021/01/26 07:16:39;;;;;;;28.30;18.77;;;;;;;;;;4762804;28;178224;-69
2021/01/26 07:19:24;;;;;;;60.23;22.50;;;;;;;;;;4770549;29;177906;-70
2021/01/26 07:22:11;;;;;;;29.00;19.90;;;;;;;;;;4773230;29;177562;-70
2021/01/26 07:24:56;;;;;;;38.43;19.97;;;;;;;;;;4769972;29;180689;-69
2021/01/26 07:27:30;;;;;;;27.60;18.67;;;;;;;;;;4773921;29;178427;-69
2021/01/26 07:30:03;;;;;;;28.97;19.07;;;;;;;;;;4772915;29;181705;-69
2021/01/26 07:32:40;;;;;;;27.93;18.50;;;;;;;;;;4772914;28;179508;-69
2021/01/26 07:35:12;;;;;;;37.63;19.90;;;;;;;;;;4788762;28;180017;-70
2021/01/26 07:37:51;;;;;;;35.83;20.03;;;;;;;;;;4770268;28;178954;-70
2021/01/26 07:40:27;;;;;;;35.23;21.73;;;;;;;;;;4769968;29;178810;-70
2021/01/26 07:42:56;;;;;;;32.53;21.07;;;;;;;;;;4771887;29;178150;-70
2021/01/26 07:45:30;;;;;;;41.53;22.63;;;;;;;;;;4771693;28;179374;-69
2021/01/26 07:48:08;;;;;;;37.63;22.83;;;;;;;;;;4771108;29;178605;-70
2021/01/26 07:50:45;;;;;;;32.13;20.50;;;;;;;;;;4773223;29;178004;-69
2021/01/26 07:53:36;;;;;;;31.30;20.30;;;;;;;;;;4772357;29;178538;-70
2021/01/26 07:56:06;;;;;;;34.57;20.47;;;;;;;;;;4753541;29;182718;-70
2021/01/26 07:58:34;;;;;;;34.30;20.27;;;;;;;;;;4761065;29;181784;-69
2021/01/26 08:01:02;;;;;;;29.77;19.60;;;;;;;;;;4772428;29;178496;-68
2021/01/26 08:03:30;;;;;;;31.77;19.27;;;;;;;;;;4770533;29;178498;-69
2021/01/26 08:05:59;;;;;;;27.80;18.77;;;;;;;;;;4757269;29;179234;-69
2021/01/26 08:08:31;;;;;;;28.77;19.77;;;;;;;;;;4757152;29;179960;-68
2021/01/26 08:11:05;;;;;;;27.33;18.73;;;;;;;;;;4773512;29;178675;-70
2021/01/26 08:13:32;;;;;;;27.40;18.53;;;;;;;;;;4777404;28;178590;-72
2021/01/26 08:16:11;;;;;;;26.83;18.57;;;;;;;;;;4754324;29;184215;-70
2021/01/26 08:18:38;;;;;;;31.60;19.50;;;;;;;;;;4764647;29;178695;-68
2021/01/26 08:21:27;;;;;;;30.47;18.33;;;;;;;;;;4771498;29;181208;-70
2021/01/26 08:24:07;;;;;;;25.37;18.70;;;;;;;;;;4766756;29;177958;-70
2021/01/26 08:26:34;;;;;;;26.13;18.43;;;;;;;;;;4773638;29;180428;-70
2021/01/26 08:29:01;;;;;;;27.37;18.20;;;;;;;;;;4770301;28;179663;-69
2021/01/26 08:31:40;;;;;;;27.00;18.93;;;;;;;;;;4772285;29;178092;-69
2021/01/26 08:34:23;;;;;;;27.33;18.13;;;;;;;;;;4766744;29;180809;-70
2021/01/26 08:37:11;;;;;;;52.20;34.40;;;;;;;;;;4769998;28;180246;-70
2021/01/26 08:39:49;;;;;;;32.13;23.10;;;;;;;;;;4758317;29;177181;-71
2021/01/26 08:42:35;;;;;;;28.70;19.07;;;;;;;;;;4771311;29;179577;-71
2021/01/26 08:45:02;;;;;;;37.67;29.87;;;;;;;;;;4771731;29;181403;-71
2021/01/26 08:47:42;;;;;;;27.53;19.20;;;;;;;;;;4765212;29;182034;-71
2021/01/26 08:50:14;;;;;;;27.77;19.60;;;;;;;;;;4769741;29;182970;-75
2021/01/26 08:52:41;;;;;;;25.13;18.27;;;;;;;;;;4772017;29;178812;-75
2021/01/26 08:55:08;;;;;;;27.07;19.13;;;;;;;;;;4772849;29;178707;-75
2021/01/26 08:57:35;;;;;;;27.80;19.07;;;;;;;;;;4775490;29;178721;-75
2021/01/26 09:00:11;;;;;;;31.10;19.23;;;;;;;;;;4765933;29;178486;-75
2021/01/26 09:02:43;;;;;;;25.70;18.20;;;;;;;;;;4756184;29;177920;-74
2021/01/26 09:05:11;;;;;;;24.40;17.10;;;;;;;;;;4758553;29;176570;-75
2021/01/26 09:07:47;;;;;;;29.57;19.43;;;;;;;;;;4761953;29;179397;-75
2021/01/26 09:10:31;;;;;;;26.77;18.77;;;;;;;;;;4771826;29;179701;-75
2021/01/26 09:13:04;;;;;;;28.30;18.00;;;;;;;;;;4756636;29;181188;-75
2021/01/26 09:15:32;;;;;;;36.37;20.10;;;;;;;;;;4775640;29;178557;-73
2021/01/26 09:17:59;;;;;;;29.60;19.20;;;;;;;;;;4775386;29;179283;-77
2021/01/26 09:20:29;;;;;;;26.20;18.90;;;;;;;;;;4777977;29;178272;-83
2021/01/26 09:23:00;;;;;;;27.63;19.87;;;;;;;;;;4777300;29;178036;-78
2021/01/26 09:25:31;;;;;;;24.93;19.03;;;;;;;;;;4777632;29;178375;-75
2021/01/26 09:28:06;;;;;;;24.90;18.40;;;;;;;;;;4774562;29;181406;-82
2021/01/26 09:30:34;;;;;;;37.33;18.73;;;;;;;;;;4777353;29;177904;-79
2021/01/26 09:33:03;;;;;;;25.07;17.60;;;;;;;;;;4776809;29;178606;-80
2021/01/26 09:35:31;;;;;;;25.60;17.60;;;;;;;;;;4776076;29;178108;-78
2021/01/26 09:38:06;;;;;;;24.13;16.70;;;;;;;;;;4771172;29;183114;-79
2021/01/26 09:40:34;;;;;;;24.67;17.67;;;;;;;;;;4768799;29;181849;-77
2021/01/26 09:43:09;;;;;;;33.57;18.73;;;;;;;;;;4778299;29;178339;-76
2021/01/26 09:45:36;;;;;;;28.20;18.93;;;;;;;;;;4761042;29;178596;-79
2021/01/26 09:48:03;;;;;;;29.63;18.73;;;;;;;;;;4777407;29;179655;-79
2021/01/26 09:50:30;;;;;;;28.73;18.67;;;;;;;;;;4771412;28;178143;-78
2021/01/26 09:52:59;;;;;;;25.47;17.20;;;;;;;;;;4776520;29;178009;-80
2021/01/26 09:55:27;;;;;;;25.13;17.77;;;;;;;;;;4776299;29;176586;-82
2021/01/26 09:57:56;;;;;;;25.60;17.97;;;;;;;;;;4760621;29;180641;-84
2021/01/26 10:00:24;;;;;;;29.37;18.40;;;;;;;;;;4775258;29;178919;-85
2021/01/26 10:02:55;;;;;;;24.00;17.57;;;;;;;;;;4770838;28;182953;-86
2021/01/26 10:05:25;;;;;;;26.00;17.57;;;;;;;;;;4777357;29;178193;-85
2021/01/26 10:08:10;;;;;;;26.83;18.53;;;;;;;;;;4776446;29;181918;-83
2021/01/26 10:10:37;;;;;;;23.47;17.27;;;;;;;;;;4770807;29;179899;-84
2021/01/26 10:13:23;;;;;;;25.30;18.27;;;;;;;;;;4751913;29;179790;-88
2021/01/26 10:15:50;;;;;;;25.47;18.53;;;;;;;;;;4776750;29;178039;-89
2021/01/26 10:18:23;;;;;;;27.77;18.67;;;;;;;;;;4777870;29;179367;-85
2021/01/26 10:20:55;;;;;;;24.80;17.87;;;;;;;;;;4778588;29;178637;-85
2021/01/26 10:23:24;;;;;;;25.00;18.17;;;;;;;;;;4777154;29;178295;-87
2021/01/26 10:25:51;;;;;;;25.53;18.57;;;;;;;;;;4777902;29;178047;-88
2021/01/26 10:28:26;;;;;;;21.87;17.60;;;;;;;;;;4775398;29;182570;-86
2021/01/26 10:30:53;;;;;;;24.63;18.87;;;;;;;;;;4775537;29;180879;-85
2021/01/26 10:33:34;;;;;;;25.13;19.10;;;;;;;;;;4775994;29;178817;-89
2021/01/26 10:36:20;;;;;;;24.70;18.20;;;;;;;;;;4776447;29;177962;-84
2021/01/26 10:38:47;;;;;;;24.73;17.93;;;;;;;;;;4776838;29;179369;-87
2021/01/26 10:41:14;;;;;;;26.17;18.03;;;;;;;;;;4776334;29;178650;-88
2021/01/26 10:43:41;;;;;;;25.67;19.10;;;;;;;;;;4760043;29;178089;-84
2021/01/26 10:46:16;;;;;;;25.30;19.63;;;;;;;;;;4777628;29;176432;-85
2021/01/26 10:48:43;;;;;;;28.37;20.23;;;;;;;;;;4776851;29;178778;-78
2021/01/26 10:51:15;;;;;;;28.80;19.87;;;;;;;;;;4776954;29;178667;-84
2021/01/26 10:53:46;;;;;;;28.93;21.13;;;;;;;;;;4774069;29;181306;-81
2021/01/26 10:56:14;;;;;;;28.87;20.83;;;;;;;;;;4777088;29;178264;-82
2021/01/26 10:58:42;;;;;;;28.77;21.63;;;;;;;;;;4777087;29;178957;-83
2021/01/26 11:01:09;;;;;;;27.73;21.43;;;;;;;;;;4772256;29;178108;-81
2021/01/26 11:03:37;;;;;;;28.63;20.83;;;;;;;;;;4776723;29;178267;-84
2021/01/26 11:06:04;;;;;;;25.23;19.60;;;;;;;;;;4775022;29;178592;-83
2021/01/26 11:08:34;;;;;;;28.40;20.63;;;;;;;;;;4771363;29;179615;-74
2021/01/26 11:11:01;;;;;;;30.57;21.13;;;;;;;;;;4778403;29;178246;-80
2021/01/26 11:13:28;;;;;;;28.83;21.23;;;;;;;;;;4777124;29;177955;-81
2021/01/26 11:15:54;;;;;;;29.30;21.03;;;;;;;;;;4777974;29;177889;-80
2021/01/26 11:18:21;;;;;;;30.23;22.07;;;;;;;;;;4774728;29;182048;-81
2021/01/26 11:20:48;;;;;;;31.87;22.83;;;;;;;;;;4775182;29;181124;-80
2021/01/26 11:23:15;;;;;;;29.03;22.53;;;;;;;;;;4758222;29;178795;-79
2021/01/26 11:25:42;;;;;;;30.10;23.60;;;;;;;;;;4775990;29;178002;-77
2021/01/26 11:28:09;;;;;;;30.07;22.13;;;;;;;;;;4765833;29;179863;-73
2021/01/26 11:30:36;;;;;;;26.87;20.40;;;;;;;;;;4793306;28;178324;-81
2021/01/26 11:33:07;;;;;;;29.97;22.53;;;;;;;;;;4789311;28;177873;-80
2021/01/26 11:35:33;;;;;;;28.93;21.70;;;;;;;;;;4776998;28;176921;-79
2021/01/26 11:38:00;;;;;;;29.30;21.63;;;;;;;;;;4774156;29;178671;-78
2021/01/26 11:40:27;;;;;;;28.07;21.17;;;;;;;;;;4775805;29;179848;-78
2021/01/26 11:42:54;;;;;;;31.20;23.57;;;;;;;;;;4770382;29;182516;-76
2021/01/26 11:45:39;;;;;;;33.17;24.47;;;;;;;;;;4772633;29;178515;-80
2021/01/26 11:48:07;;;;;;;33.53;23.87;;;;;;;;;;4772054;29;179548;-76
2021/01/26 11:50:35;;;;;;;34.07;23.03;;;;;;;;;;4760742;29;178351;-75
2021/01/26 11:53:02;;;;;;;33.97;24.70;;;;;;;;;;4772985;29;178539;-77
2021/01/26 11:55:30;;;;;;;36.90;24.30;;;;;;;;;;4767157;29;178732;-76
2021/01/26 11:57:58;;;;;;;35.50;25.00;;;;;;;;;;4772739;29;179425;-75
2021/01/26 12:00:26;;;;;;;36.33;26.00;;;;;;;;;;4773751;29;178891;-77
2021/01/26 12:02:53;;;;;;;36.90;25.17;;;;;;;;;;4762456;29;179005;-77
2021/01/26 12:05:21;;;;;;;33.93;24.53;;;;;;;;;;4772798;29;178596;-74
2021/01/26 12:07:48;;;;;;;34.13;25.03;;;;;;;;;;4771056;29;182656;-75
2021/01/26 12:10:16;;;;;;;33.70;24.83;;;;;;;;;;4770657;29;182739;-77
2021/01/26 12:12:42;;;;;;;37.30;24.80;;;;;;;;;;4763990;29;178379;-76
2021/01/26 12:15:11;;;;;;;34.50;25.07;;;;;;;;;;4754856;29;178771;-76
2021/01/26 12:17:38;;;;;;;35.27;24.87;;;;;;;;;;4765779;29;179809;-77
2021/01/26 12:20:05;;;;;;;38.87;26.30;;;;;;;;;;4765858;28;179096;-76
2021/01/26 12:22:32;;;;;;;36.63;25.63;;;;;;;;;;4761697;29;179094;-73
2021/01/26 12:24:59;;;;;;;35.37;25.23;;;;;;;;;;4772323;28;176658;-75
2021/01/26 12:27:25;;;;;;;32.43;23.60;;;;;;;;;;4771702;29;178924;-76
2021/01/26 12:29:52;;;;;;;34.17;23.60;;;;;;;;;;4771316;29;179217;-76
2021/01/26 12:32:20;;;;;;;35.13;25.17;;;;;;;;;;4766346;28;181416;-76
2021/01/26 12:34:46;;;;;;;42.07;26.03;;;;;;;;;;4770763;29;179211;-77
2021/01/26 12:37:13;;;;;;;34.43;24.60;;;;;;;;;;4754583;29;179087;-76
2021/01/26 12:39:40;;;;;;;36.97;25.17;;;;;;;;;;4771794;29;178455;-76
2021/01/26 12:42:07;;;;;;;32.77;22.97;;;;;;;;;;4770612;29;179159;-76
2021/01/26 12:44:33;;;;;;;31.40;23.27;;;;;;;;;;4764071;28;178016;-76
2021/01/26 12:47:00;;;;;;;29.37;22.17;;;;;;;;;;4770777;29;180437;-76
2021/01/26 12:49:27;;;;;;;29.23;21.47;;;;;;;;;;4772972;29;178783;-76
2021/01/26 12:51:54;;;;;;;28.77;21.97;;;;;;;;;;4770640;29;178016;-77
2021/01/26 12:54:21;;;;;;;35.13;22.40;;;;;;;;;;4772588;29;178113;-77
2021/01/26 12:56:48;;;;;;;32.17;24.20;;;;;;;;;;4769321;29;182882;-76
2021/01/26 12:59:15;;;;;;;32.33;23.90;;;;;;;;;;4767890;29;181528;-75
2021/01/26 13:01:42;;;;;;;34.37;24.20;;;;;;;;;;4773054;29;181153;-76
2021/01/26 13:04:09;;;;;;;35.67;25.57;;;;;;;;;;4773416;29;178096;-76
2021/01/26 13:06:37;;;;;;;37.00;25.80;;;;;;;;;;4773971;29;179088;-76
2021/01/26 13:09:03;;;;;;;32.60;23.43;;;;;;;;;;4771887;29;180532;-75
2021/01/26 13:11:30;;;;;;;35.10;24.50;;;;;;;;;;4774538;29;178918;-75
2021/01/26 13:13:57;;;;;;;34.47;23.93;;;;;;;;;;4774965;29;177927;-78
2021/01/26 13:16:24;;;;;;;31.37;23.43;;;;;;;;;;4774579;29;180066;-75
2021/01/26 13:18:51;;;;;;;34.73;24.57;;;;;;;;;;4773989;29;178466;-76
2021/01/26 13:21:18;;;;;;;36.13;24.53;;;;;;;;;;4770937;29;181731;-76
2021/01/26 13:23:45;;;;;;;33.43;24.47;;;;;;;;;;4775891;29;178708;-79
2021/01/26 13:26:12;;;;;;;32.67;23.53;;;;;;;;;;4757071;29;182928;-83
2021/01/26 13:28:41;;;;;;;30.07;21.80;;;;;;;;;;4772919;29;178264;-74
2021/01/26 13:31:08;;;;;;;31.23;23.50;;;;;;;;;;4770854;29;177883;-76
2021/01/26 13:33:36;;;;;;;32.57;22.93;;;;;;;;;;4773635;29;178629;-77
2021/01/26 13:36:03;;;;;;;30.67;22.43;;;;;;;;;;4771467;29;180927;-76
2021/01/26 13:38:30;;;;;;;34.00;22.33;;;;;;;;;;4770748;29;177873;-77
2021/01/26 13:40:58;;;;;;;32.77;22.90;;;;;;;;;;4774533;29;177976;-77
2021/01/26 13:43:25;;;;;;;29.70;21.27;;;;;;;;;;4772924;29;178654;-76
2021/01/26 13:45:52;;;;;;;33.67;22.53;;;;;;;;;;4769052;29;183498;-76
2021/01/26 13:48:18;;;;;;;30.87;21.93;;;;;;;;;;4768830;28;181783;-77
2021/01/26 13:50:45;;;;;;;32.17;21.57;;;;;;;;;;4773663;29;180360;-77
2021/01/26 13:53:12;;;;;;;28.57;19.93;;;;;;;;;;4773526;29;178466;-74
2021/01/26 13:55:39;;;;;;;26.83;18.87;;;;;;;;;;4769287;29;179166;-79
2021/01/26 13:58:05;;;;;;;30.40;20.20;;;;;;;;;;4775328;29;179070;-77
2021/01/26 14:00:33;;;;;;;28.20;20.57;;;;;;;;;;4772864;29;178006;-71
2021/01/26 14:03:01;;;;;;;29.63;20.73;;;;;;;;;;4773904;29;177101;-74
2021/01/26 14:05:29;;;;;;;29.43;21.43;;;;;;;;;;4758964;29;179025;-77
2021/01/26 14:07:57;;;;;;;30.93;20.93;;;;;;;;;;4758010;29;178420;-74
2021/01/26 14:10:24;;;;;;;31.70;21.77;;;;;;;;;;4771610;29;182556;-76
2021/01/26 14:12:50;;;;;;;28.73;19.97;;;;;;;;;;4759665;29;178559;-75
2021/01/26 14:15:17;;;;;;;28.80;20.50;;;;;;;;;;4757920;29;179258;-75
2021/01/26 14:17:45;;;;;;;29.87;20.23;;;;;;;;;;4759493;29;181044;-71
2021/01/26 14:20:14;;;;;;;30.17;20.43;;;;;;;;;;4757321;29;178902;-71
2021/01/26 14:22:41;;;;;;;28.63;20.13;;;;;;;;;;4758212;29;177990;-73
2021/01/26 14:25:09;;;;;;;29.67;20.03;;;;;;;;;;4757953;29;178176;-73
2021/01/26 14:27:36;;;;;;;29.17;20.43;;;;;;;;;;4761927;29;178999;-75